Time;durP1;ratioP1;P1;durP2;ratioP2;P2;SDS_P1;SDS_P2;PMS_P1;PMS_P2;Temp;Humidity;BMP_temperature;BMP_pressure;BME280_temperature;BME280_humidity;BME280_pressure;Samples;Min_cycle;Max_cycle;Signal;HPM_P1;HPM_P2
2022/07/18 00:01:48;;;;;;;2.92;1.33;;;;;;;;;;5000695;28;20061;-81
2022/07/18 00:04:14;;;;;;;2.88;1.30;;;;;;;;;;5002976;28;20033;-80
2022/07/18 00:06:39;;;;;;;4.15;1.52;;;;;;;;;;5000119;28;20116;-81
2022/07/18 00:09:04;;;;;;;3.25;1.40;;;;;;;;;;5003094;28;20046;-80
2022/07/18 00:11:30;;;;;;;2.47;1.23;;;;;;;;;;5000340;28;20034;-80
2022/07/18 00:13:56;;;;;;;3.65;1.60;;;;;;;;;;5004192;28;20099;-80
2022/07/18 00:16:22;;;;;;;2.22;1.10;;;;;;;;;;5002713;28;20388;-81
2022/07/18 00:18:48;;;;;;;3.35;1.00;;;;;;;;;;5019907;28;20030;-81
2022/07/18 00:21:14;;;;;;;3.53;1.20;;;;;;;;;;5014123;28;20040;-81
2022/07/18 00:23:39;;;;;;;3.47;1.25;;;;;;;;;;4991278;28;20045;-81
2022/07/18 00:26:05;;;;;;;2.30;1.00;;;;;;;;;;4995632;28;20133;-81
2022/07/18 00:28:30;;;;;;;2.22;1.10;;;;;;;;;;4999178;28;20029;-82
2022/07/18 00:30:55;;;;;;;2.78;1.25;;;;;;;;;;5010595;28;20088;-80
2022/07/18 00:33:21;;;;;;;2.55;1.10;;;;;;;;;;4986049;28;20405;-81
2022/07/18 00:35:46;;;;;;;2.85;1.10;;;;;;;;;;4985264;28;20567;-80
2022/07/18 00:38:11;;;;;;;1.95;1.05;;;;;;;;;;5014823;28;20034;-79
2022/07/18 00:40:37;;;;;;;4.15;1.33;;;;;;;;;;5003203;28;20123;-80
2022/07/18 00:43:02;;;;;;;2.90;1.40;;;;;;;;;;5000321;28;20145;-80
2022/07/18 00:45:27;;;;;;;3.00;1.10;;;;;;;;;;5014758;28;20049;-81
2022/07/18 00:47:53;;;;;;;3.15;1.25;;;;;;;;;;5012603;28;20048;-81
2022/07/18 00:50:20;;;;;;;2.80;1.20;;;;;;;;;;5018578;28;20037;-81
2022/07/18 00:52:45;;;;;;;2.80;1.03;;;;;;;;;;4999483;28;20056;-80
2022/07/18 00:55:11;;;;;;;4.93;1.45;;;;;;;;;;4980745;28;20452;-79
2022/07/18 00:57:37;;;;;;;3.55;1.42;;;;;;;;;;5018142;28;20041;-80
2022/07/18 01:02:49;;;;;;;4.53;1.75;;;;;;;;;;5015051;28;20091;-80
2022/07/18 01:05:15;;;;;;;2.35;1.10;;;;;;;;;;5007096;28;20037;-82
2022/07/18 01:07:40;;;;;;;2.38;0.88;;;;;;;;;;5002381;28;20033;-79
2022/07/18 01:10:06;;;;;;;1.90;0.90;;;;;;;;;;5006041;28;20045;-80
2022/07/18 01:12:32;;;;;;;4.75;1.30;;;;;;;;;;5019085;28;20026;-80
2022/07/18 01:14:58;;;;;;;2.85;1.10;;;;;;;;;;5014077;28;20098;-81
2022/07/18 01:17:23;;;;;;;2.30;0.80;;;;;;;;;;5015063;28;20033;-82
2022/07/18 01:19:49;;;;;;;2.45;1.00;;;;;;;;;;5001008;28;20048;-81
2022/07/18 01:22:17;;;;;;;3.10;1.10;;;;;;;;;;4998859;28;20040;-80
2022/07/18 01:24:43;;;;;;;2.25;0.90;;;;;;;;;;5001346;28;20053;-80
2022/07/18 01:27:10;;;;;;;3.15;1.17;;;;;;;;;;5000182;28;20033;-81
2022/07/18 01:29:35;;;;;;;4.28;1.30;;;;;;;;;;4997498;28;20085;-81
2022/07/18 01:32:07;;;;;;;3.10;1.30;;;;;;;;;;4985837;28;20042;-81
2022/07/18 01:34:33;;;;;;;3.78;1.23;;;;;;;;;;4998816;28;20447;-80
2022/07/18 01:37:02;;;;;;;3.42;0.95;;;;;;;;;;4996629;28;20045;-81
2022/07/18 01:39:27;;;;;;;2.55;1.08;;;;;;;;;;5007604;28;20504;-80
2022/07/18 01:42:02;;;;;;;4.65;1.10;;;;;;;;;;5013714;28;20080;-80
2022/07/18 01:44:28;;;;;;;3.42;1.10;;;;;;;;;;4996594;28;20053;-80
2022/07/18 01:46:54;;;;;;;3.85;1.73;;;;;;;;;;4999396;28;20068;-81
2022/07/18 01:49:20;;;;;;;2.60;1.17;;;;;;;;;;4998511;28;20505;-81
2022/07/18 01:51:50;;;;;;;2.05;1.08;;;;;;;;;;4994335;28;20045;-80
2022/07/18 01:54:16;;;;;;;3.13;1.45;;;;;;;;;;5003802;28;20026;-82
2022/07/18 01:56:41;;;;;;;2.42;1.02;;;;;;;;;;5013549;28;20046;-80
2022/07/18 01:59:06;;;;;;;5.65;1.40;;;;;;;;;;5013495;28;20103;-81
2022/07/18 02:01:32;;;;;;;2.53;1.13;;;;;;;;;;5005809;28;20025;-80
2022/07/18 02:03:57;;;;;;;3.33;1.27;;;;;;;;;;5012490;28;20128;-81
2022/07/18 02:06:23;;;;;;;3.42;1.38;;;;;;;;;;4997169;28;20025;-79
2022/07/18 02:08:48;;;;;;;3.45;1.50;;;;;;;;;;5002234;28;20434;-80
2022/07/18 02:11:13;;;;;;;2.72;1.42;;;;;;;;;;4999457;28;20088;-80
2022/07/18 02:13:39;;;;;;;5.03;1.27;;;;;;;;;;5013292;28;20038;-79
2022/07/18 02:16:05;;;;;;;3.40;1.60;;;;;;;;;;4998653;28;20445;-80
2022/07/18 02:18:32;;;;;;;2.92;1.60;;;;;;;;;;4986426;28;20041;-80
2022/07/18 02:21:01;;;;;;;3.85;1.52;;;;;;;;;;4983917;28;20049;-80
2022/07/18 02:23:27;;;;;;;3.35;1.42;;;;;;;;;;4996710;28;20034;-80
2022/07/18 02:25:54;;;;;;;4.47;1.63;;;;;;;;;;5014030;28;20048;-80
2022/07/18 02:28:19;;;;;;;3.42;1.60;;;;;;;;;;4999538;28;20111;-81
2022/07/18 02:30:50;;;;;;;4.05;1.95;;;;;;;;;;5007091;28;20424;-80
2022/07/18 02:33:16;;;;;;;4.20;1.65;;;;;;;;;;5003828;28;20057;-79
2022/07/18 02:35:42;;;;;;;3.80;1.50;;;;;;;;;;5001461;28;20041;-79
2022/07/18 02:38:08;;;;;;;3.35;1.50;;;;;;;;;;5002178;28;20038;-80
2022/07/18 02:40:34;;;;;;;3.08;1.50;;;;;;;;;;5017839;28;20037;-81
2022/07/18 02:43:03;;;;;;;3.50;1.58;;;;;;;;;;5005868;28;20034;-81
2022/07/18 02:45:29;;;;;;;3.47;1.50;;;;;;;;;;5002711;28;20037;-80
2022/07/18 02:47:54;;;;;;;3.47;1.75;;;;;;;;;;5000836;28;20902;-79
2022/07/18 02:50:20;;;;;;;4.32;1.50;;;;;;;;;;5015659;28;20034;-81
2022/07/18 02:52:45;;;;;;;5.07;2.10;;;;;;;;;;5002119;28;20416;-79
2022/07/18 02:55:12;;;;;;;2.83;1.42;;;;;;;;;;5009022;28;20048;-80
2022/07/18 02:57:38;;;;;;;4.97;1.88;;;;;;;;;;5000261;28;20107;-80
2022/07/18 03:00:06;;;;;;;3.85;1.65;;;;;;;;;;4985580;28;20050;-80
2022/07/18 03:02:31;;;;;;;4.32;1.50;;;;;;;;;;5007613;28;20041;-80
2022/07/18 03:04:56;;;;;;;4.38;1.70;;;;;;;;;;5017598;28;20030;-80
2022/07/18 03:07:22;;;;;;;3.30;1.40;;;;;;;;;;5019276;28;20026;-80
2022/07/18 03:09:47;;;;;;;3.80;1.70;;;;;;;;;;5006873;28;20563;-80
2022/07/18 03:12:13;;;;;;;3.53;1.60;;;;;;;;;;4997372;28;20084;-80
2022/07/18 03:14:38;;;;;;;2.88;1.50;;;;;;;;;;5017571;28;20508;-80
2022/07/18 03:17:04;;;;;;;4.32;1.40;;;;;;;;;;5011835;28;20045;-81
2022/07/18 03:19:29;;;;;;;3.80;1.52;;;;;;;;;;5003138;28;20440;-81
2022/07/18 03:21:54;;;;;;;4.00;1.70;;;;;;;;;;5000509;28;20038;-80
2022/07/18 03:24:20;;;;;;;6.57;1.50;;;;;;;;;;5014017;28;20068;-80
2022/07/18 03:26:48;;;;;;;2.75;1.38;;;;;;;;;;5002463;28;20045;-80
2022/07/18 03:29:13;;;;;;;4.80;1.63;;;;;;;;;;5001180;28;20038;-80
2022/07/18 03:31:39;;;;;;;4.47;1.70;;;;;;;;;;5007014;28;20049;-79
2022/07/18 03:34:04;;;;;;;4.40;1.55;;;;;;;;;;5002801;28;20068;-81
2022/07/18 03:36:30;;;;;;;4.15;2.00;;;;;;;;;;5013837;28;20054;-80
2022/07/18 03:38:56;;;;;;;3.95;1.52;;;;;;;;;;5008349;28;20061;-79
2022/07/18 03:41:21;;;;;;;4.78;1.73;;;;;;;;;;5000431;28;20120;-80
2022/07/18 03:43:46;;;;;;;3.05;1.40;;;;;;;;;;5001686;28;20042;-79
2022/07/18 03:46:12;;;;;;;4.00;1.40;;;;;;;;;;5005712;28;20039;-79
2022/07/18 03:48:37;;;;;;;3.53;1.52;;;;;;;;;;5005548;28;20563;-80
2022/07/18 03:51:03;;;;;;;4.30;1.63;;;;;;;;;;5002466;28;20029;-80
2022/07/18 03:53:29;;;;;;;3.00;1.40;;;;;;;;;;5000776;28;20042;-80
2022/07/18 03:55:55;;;;;;;3.63;1.83;;;;;;;;;;4998005;28;20056;-80
2022/07/18 03:58:20;;;;;;;4.88;1.70;;;;;;;;;;5002550;28;20056;-80
2022/07/18 04:00:46;;;;;;;7.18;1.60;;;;;;;;;;5018555;28;20049;-79
2022/07/18 04:03:11;;;;;;;3.80;1.75;;;;;;;;;;5014267;28;20042;-80
2022/07/18 04:05:37;;;;;;;4.43;1.63;;;;;;;;;;5013877;28;20101;-80
2022/07/18 04:08:02;;;;;;;3.53;1.52;;;;;;;;;;5007119;28;20030;-80
2022/07/18 04:10:27;;;;;;;3.38;1.77;;;;;;;;;;5001416;28;20037;-80
2022/07/18 04:12:55;;;;;;;3.60;1.88;;;;;;;;;;4999880;28;20442;-79
2022/07/18 04:15:21;;;;;;;3.97;1.70;;;;;;;;;;4998431;28;20046;-80
2022/07/18 04:17:47;;;;;;;3.15;1.63;;;;;;;;;;5001658;28;20041;-80
2022/07/18 04:20:14;;;;;;;3.80;1.77;;;;;;;;;;5016524;28;20083;-80
2022/07/18 04:22:54;;;;;;;3.50;1.70;;;;;;;;;;5012470;28;20716;-81
2022/07/18 04:25:22;;;;;;;4.80;2.10;;;;;;;;;;4997297;28;20045;-79
2022/07/18 04:27:48;;;;;;;4.60;1.83;;;;;;;;;;5005451;28;20073;-79
2022/07/18 04:30:14;;;;;;;3.10;1.63;;;;;;;;;;5012633;28;20532;-79
2022/07/18 04:32:40;;;;;;;3.05;1.48;;;;;;;;;;5011467;28;20061;-79
2022/07/18 04:35:06;;;;;;;4.35;1.63;;;;;;;;;;5001425;28;20123;-80
2022/07/18 04:37:32;;;;;;;2.88;1.52;;;;;;;;;;5004544;28;20033;-80
2022/07/18 04:39:58;;;;;;;3.83;1.65;;;;;;;;;;5000824;28;20037;-80
2022/07/18 04:42:24;;;;;;;4.75;1.70;;;;;;;;;;5000272;28;20034;-80
2022/07/18 04:44:49;;;;;;;3.95;1.90;;;;;;;;;;4998604;28;20048;-80
2022/07/18 04:47:15;;;;;;;3.95;1.67;;;;;;;;;;4990774;28;20040;-79
2022/07/18 04:49:43;;;;;;;7.32;2.03;;;;;;;;;;5013601;28;20030;-79
2022/07/18 04:52:08;;;;;;;4.85;1.73;;;;;;;;;;4997189;28;20046;-80
2022/07/18 04:54:34;;;;;;;3.33;1.30;;;;;;;;;;5014501;28;20393;-80
2022/07/18 04:56:59;;;;;;;4.45;1.90;;;;;;;;;;4988806;28;20039;-80
2022/07/18 04:59:25;;;;;;;3.78;2.00;;;;;;;;;;5015549;28;20034;-80
2022/07/18 05:01:50;;;;;;;4.57;2.20;;;;;;;;;;5012501;28;20083;-80
2022/07/18 05:04:15;;;;;;;3.53;1.77;;;;;;;;;;4997248;28;20515;-80
2022/07/18 05:06:41;;;;;;;4.80;1.83;;;;;;;;;;4998835;28;20477;-80
2022/07/18 05:09:06;;;;;;;2.90;1.30;;;;;;;;;;5011545;28;20026;-80
2022/07/18 05:11:31;;;;;;;3.25;1.40;;;;;;;;;;4991282;28;20515;-81
2022/07/18 05:13:57;;;;;;;3.20;1.65;;;;;;;;;;4985346;28;20052;-80
2022/07/18 05:16:22;;;;;;;2.80;1.38;;;;;;;;;;4992742;28;20751;-80
2022/07/18 05:18:47;;;;;;;3.97;1.20;;;;;;;;;;4986440;28;20107;-81
2022/07/18 05:21:13;;;;;;;3.33;1.45;;;;;;;;;;4987466;28;20528;-80
2022/07/18 05:23:38;;;;;;;2.85;1.30;;;;;;;;;;4996345;28;20473;-80
2022/07/18 05:26:04;;;;;;;3.38;1.20;;;;;;;;;;5004266;28;20045;-81
2022/07/18 05:28:30;;;;;;;3.75;1.63;;;;;;;;;;4984132;28;20034;-81
2022/07/18 05:30:55;;;;;;;4.85;1.35;;;;;;;;;;4980153;28;20042;-81
2022/07/18 05:33:22;;;;;;;2.90;1.35;;;;;;;;;;4990361;28;20048;-81
2022/07/18 05:35:50;;;;;;;6.47;1.60;;;;;;;;;;4994816;28;20140;-81
2022/07/18 05:38:15;;;;;;;3.55;1.30;;;;;;;;;;5011763;28;20042;-81
2022/07/18 05:40:43;;;;;;;3.95;1.20;;;;;;;;;;4997895;28;20571;-81
2022/07/18 05:43:09;;;;;;;3.25;1.02;;;;;;;;;;5012121;28;20041;-81
2022/07/18 05:45:37;;;;;;;4.90;1.33;;;;;;;;;;4998336;28;20485;-81
2022/07/18 05:48:02;;;;;;;2.85;0.93;;;;;;;;;;4995563;28;20042;-81
2022/07/18 05:50:28;;;;;;;2.67;1.05;;;;;;;;;;5008589;28;20462;-81
2022/07/18 05:52:53;;;;;;;3.05;1.08;;;;;;;;;;4994186;28;20049;-83
2022/07/18 05:55:19;;;;;;;3.28;1.05;;;;;;;;;;4982568;28;20042;-82
2022/07/18 05:57:45;;;;;;;2.55;1.05;;;;;;;;;;5005617;28;20045;-82
2022/07/18 06:00:11;;;;;;;2.45;0.98;;;;;;;;;;4998908;28;20038;-82
2022/07/18 06:02:37;;;;;;;2.53;1.20;;;;;;;;;;4998735;28;20057;-82
2022/07/18 06:05:03;;;;;;;2.35;1.05;;;;;;;;;;5011853;28;20034;-82
2022/07/18 06:07:31;;;;;;;1.98;0.75;;;;;;;;;;5012695;28;20037;-82
2022/07/18 06:09:57;;;;;;;2.88;1.15;;;;;;;;;;4997558;28;20044;-83
2022/07/18 06:12:22;;;;;;;2.15;1.00;;;;;;;;;;5009084;28;20042;-82
2022/07/18 06:14:48;;;;;;;4.07;1.02;;;;;;;;;;5022725;28;20122;-82
2022/07/18 06:17:13;;;;;;;2.45;0.80;;;;;;;;;;4998359;28;20454;-82
2022/07/18 06:19:39;;;;;;;3.28;1.20;;;;;;;;;;4981337;28;20049;-82
2022/07/18 06:22:05;;;;;;;3.13;1.17;;;;;;;;;;5014247;28;20502;-82
2022/07/18 06:24:30;;;;;;;2.70;0.90;;;;;;;;;;5000819;28;20080;-80
2022/07/18 06:26:56;;;;;;;2.20;0.90;;;;;;;;;;5012499;28;20037;-81
2022/07/18 06:29:22;;;;;;;6.00;1.23;;;;;;;;;;5010897;28;20029;-81
2022/07/18 06:31:48;;;;;;;3.15;0.90;;;;;;;;;;5013030;28;20536;-82
2022/07/18 06:34:13;;;;;;;2.03;0.73;;;;;;;;;;5001506;28;20095;-83
2022/07/18 06:36:39;;;;;;;1.67;0.80;;;;;;;;;;5000482;28;20044;-82
2022/07/18 06:39:10;;;;;;;3.83;0.88;;;;;;;;;;5001023;28;20505;-83
2022/07/18 06:41:36;;;;;;;1.70;0.60;;;;;;;;;;5011361;28;20067;-80
2022/07/18 06:44:02;;;;;;;1.88;0.80;;;;;;;;;;5022527;28;20125;-81
2022/07/18 06:46:27;;;;;;;2.92;1.10;;;;;;;;;;5010893;28;20104;-81
2022/07/18 06:48:53;;;;;;;2.90;0.90;;;;;;;;;;5000302;28;20485;-82
2022/07/18 06:51:20;;;;;;;2.85;0.88;;;;;;;;;;4997906;28;20065;-81
2022/07/18 06:53:45;;;;;;;;;;;;;;;;;;5001712;28;20432;-82
2022/07/18 06:56:11;;;;;;;2.25;0.80;;;;;;;;;;4998205;28;19928;-82
2022/07/18 06:58:36;;;;;;;2.47;1.00;;;;;;;;;;4996558;28;20419;-82
2022/07/18 07:01:02;;;;;;;1.85;0.90;;;;;;;;;;5000195;28;20034;-81
2022/07/18 07:03:28;;;;;;;1.50;0.70;;;;;;;;;;4999741;28;20076;-82
2022/07/18 07:05:53;;;;;;;2.10;0.80;;;;;;;;;;4999679;28;20668;-83
2022/07/18 07:08:22;;;;;;;1.90;0.70;;;;;;;;;;5004191;28;20026;-83
2022/07/18 07:10:47;;;;;;;2.10;0.70;;;;;;;;;;4998204;28;20449;-82
2022/07/18 07:13:12;;;;;;;2.53;0.88;;;;;;;;;;4996506;28;20037;-83
2022/07/18 07:15:40;;;;;;;2.05;0.70;;;;;;;;;;5001214;28;22366;-82
2022/07/18 07:18:05;;;;;;;1.95;0.65;;;;;;;;;;5001479;28;20124;-82
2022/07/18 07:20:31;;;;;;;1.65;0.57;;;;;;;;;;5000419;28;20471;-82
2022/07/18 07:22:57;;;;;;;1.88;0.55;;;;;;;;;;5000491;28;20030;-82
2022/07/18 07:25:24;;;;;;;3.15;0.85;;;;;;;;;;5017154;28;20038;-83
2022/07/18 07:27:49;;;;;;;2.92;0.80;;;;;;;;;;5018903;28;20045;-81
2022/07/18 07:30:15;;;;;;;1.52;0.60;;;;;;;;;;5014160;28;20038;-82
2022/07/18 07:32:43;;;;;;;3.50;0.90;;;;;;;;;;5007331;28;20100;-81
2022/07/18 07:35:11;;;;;;;;;;;;;;;;;;5023997;28;20052;-81
2022/07/18 07:37:40;;;;;;;2.03;0.60;;;;;;;;;;5013894;28;20398;-82
2022/07/18 07:40:07;;;;;;;1.85;0.52;;;;;;;;;;5001937;28;20041;-82
2022/07/18 07:42:32;;;;;;;2.23;0.70;;;;;;;;;;5022016;28;20036;-84
2022/07/18 07:44:57;;;;;;;1.58;0.60;;;;;;;;;;5002239;28;20276;-84
2022/07/18 07:47:23;;;;;;;2.40;0.57;;;;;;;;;;4994487;28;20046;-84
2022/07/18 07:49:48;;;;;;;1.95;0.60;;;;;;;;;;5015694;28;20523;-85
2022/07/18 07:52:14;;;;;;;2.30;0.90;;;;;;;;;;4998641;28;20120;-84
2022/07/18 07:54:44;;;;;;;2.65;0.70;;;;;;;;;;5011962;28;20314;-82
2022/07/18 07:57:10;;;;;;;1.85;0.60;;;;;;;;;;5002386;28;20476;-82
2022/07/18 07:59:35;;;;;;;2.03;0.50;;;;;;;;;;5014855;28;20948;-86
2022/07/18 08:02:01;;;;;;;1.70;0.50;;;;;;;;;;4998270;28;20074;-85
2022/07/18 08:04:26;;;;;;;4.40;0.90;;;;;;;;;;5002002;28;20128;-86
2022/07/18 08:06:51;;;;;;;2.60;0.75;;;;;;;;;;4987203;28;20041;-86
2022/07/18 08:09:17;;;;;;;2.33;0.63;;;;;;;;;;5004945;28;20034;-86
2022/07/18 08:11:42;;;;;;;2.92;0.60;;;;;;;;;;5005499;28;20049;-85
2022/07/18 08:14:08;;;;;;;1.65;0.63;;;;;;;;;;5017024;28;20052;-85
2022/07/18 08:16:33;;;;;;;3.50;0.98;;;;;;;;;;4999338;28;20041;-85
2022/07/18 08:18:58;;;;;;;2.13;0.77;;;;;;;;;;4999097;28;20083;-85
2022/07/18 08:21:24;;;;;;;1.88;0.50;;;;;;;;;;4999965;28;20121;-85
2022/07/18 08:23:49;;;;;;;2.75;0.75;;;;;;;;;;5002079;28;20100;-85
2022/07/18 08:26:15;;;;;;;2.38;0.68;;;;;;;;;;4998478;28;20670;-86
2022/07/18 08:28:40;;;;;;;1.88;0.60;;;;;;;;;;5005804;28;20037;-85
2022/07/18 08:31:06;;;;;;;2.70;0.88;;;;;;;;;;5016253;28;20042;-85
2022/07/18 08:33:31;;;;;;;2.40;0.85;;;;;;;;;;5005871;28;20116;-84
2022/07/18 08:35:56;;;;;;;2.67;0.90;;;;;;;;;;4997894;28;20044;-85
2022/07/18 08:38:22;;;;;;;3.42;1.05;;;;;;;;;;4998022;28;20043;-83
2022/07/18 08:40:48;;;;;;;2.83;1.05;;;;;;;;;;4999766;28;20033;-82
2022/07/18 08:43:14;;;;;;;3.25;1.20;;;;;;;;;;4994653;28;20109;-82
2022/07/18 08:45:42;;;;;;;1.63;0.75;;;;;;;;;;4997351;28;20034;-82
2022/07/18 08:48:07;;;;;;;4.30;1.40;;;;;;;;;;5013840;28;20516;-82
2022/07/18 08:50:33;;;;;;;3.20;1.10;;;;;;;;;;4995784;28;20030;-83
2022/07/18 08:52:59;;;;;;;4.00;1.30;;;;;;;;;;5012025;28;20042;-82
2022/07/18 08:55:25;;;;;;;3.75;1.20;;;;;;;;;;5010146;28;20096;-82
2022/07/18 08:58:12;;;;;;;3.33;1.10;;;;;;;;;;4998655;28;20476;-81
2022/07/18 09:00:38;;;;;;;3.85;1.10;;;;;;;;;;5010942;28;20595;-81
2022/07/18 09:03:03;;;;;;;3.17;1.13;;;;;;;;;;4985510;28;20045;-82
2022/07/18 09:05:30;;;;;;;4.20;1.05;;;;;;;;;;5003914;28;20040;-80
2022/07/18 09:08:19;;;;;;;3.75;1.25;;;;;;;;;;4995523;28;20069;-78
2022/07/18 09:10:51;;;;;;;3.13;1.52;;;;;;;;;;4994170;28;20041;-79
2022/07/18 09:13:37;;;;;;;3.33;1.25;;;;;;;;;;4981847;28;20057;-80
2022/07/18 09:16:03;;;;;;;;;;;;;;;;;;4998382;28;20037;-81
2022/07/18 09:18:31;;;;;;;2.63;1.13;;;;;;;;;;4993888;28;20000;-79
2022/07/18 09:21:04;;;;;;;4.28;1.95;;;;;;;;;;4965849;28;20037;-80
2022/07/18 09:23:31;;;;;;;2.88;1.48;;;;;;;;;;4996790;28;20089;-79
2022/07/18 09:25:57;;;;;;;3.60;1.58;;;;;;;;;;4986705;28;20034;-80
2022/07/18 09:28:23;;;;;;;4.03;1.73;;;;;;;;;;5001588;28;20044;-79
2022/07/18 09:30:48;;;;;;;4.57;2.30;;;;;;;;;;4990134;28;20521;-82
2022/07/18 09:33:15;;;;;;;3.73;1.97;;;;;;;;;;4989058;28;20092;-82
2022/07/18 09:35:44;;;;;;;;;;;;;;;;;;4978206;28;20152;-80
2022/07/18 09:38:14;;;;;;;3.58;1.00;;;;;;;;;;4977219;28;20008;-81
2022/07/18 09:40:51;;;;;;;2.97;1.27;;;;;;;;;;5003526;28;20037;-81
2022/07/18 09:43:18;;;;;;;3.40;1.67;;;;;;;;;;5012206;28;20044;-81
2022/07/18 09:45:47;;;;;;;3.90;1.83;;;;;;;;;;4988786;28;20517;-83
2022/07/18 09:48:18;;;;;;;4.20;1.75;;;;;;;;;;4999842;28;20537;-83
2022/07/18 09:50:52;;;;;;;4.82;1.60;;;;;;;;;;5013062;28;20037;-82
2022/07/18 09:53:26;;;;;;;3.55;1.75;;;;;;;;;;4997983;28;20042;-82
2022/07/18 09:55:58;;;;;;;3.58;1.98;;;;;;;;;;5003177;28;20064;-81
2022/07/18 09:58:29;;;;;;;4.18;2.03;;;;;;;;;;5003737;28;20541;-81
2022/07/18 10:00:56;;;;;;;4.40;2.10;;;;;;;;;;5014423;28;20049;-80
2022/07/18 10:03:22;;;;;;;5.07;2.15;;;;;;;;;;4999532;28;20123;-83
2022/07/18 10:05:49;;;;;;;4.15;2.10;;;;;;;;;;4991826;28;20571;-83
2022/07/18 10:08:17;;;;;;;4.15;2.42;;;;;;;;;;5009246;28;20125;-86
2022/07/18 10:10:44;;;;;;;5.10;2.35;;;;;;;;;;5003127;28;20398;-84
2022/07/18 10:13:11;;;;;;;3.83;2.00;;;;;;;;;;5004901;28;20045;-84
2022/07/18 10:15:39;;;;;;;4.53;2.25;;;;;;;;;;5004334;28;20080;-83
2022/07/18 10:18:08;;;;;;;5.25;2.30;;;;;;;;;;4994667;28;20091;-84
2022/07/18 10:20:43;;;;;;;4.20;2.08;;;;;;;;;;4983197;28;20044;-83
2022/07/18 10:23:25;;;;;;;4.10;2.20;;;;;;;;;;4995861;28;24585;-84
2022/07/18 10:26:16;;;;;;;3.67;2.13;;;;;;;;;;5010398;28;20034;-83
2022/07/18 10:29:00;;;;;;;3.60;2.00;;;;;;;;;;4995943;28;20041;-83
2022/07/18 10:31:29;;;;;;;4.70;2.00;;;;;;;;;;5015360;28;20125;-84
2022/07/18 10:34:07;;;;;;;4.80;2.00;;;;;;;;;;5015153;28;20375;-85
2022/07/18 10:36:51;;;;;;;4.20;1.83;;;;;;;;;;5012443;28;20104;-84
2022/07/18 10:39:23;;;;;;;3.97;2.15;;;;;;;;;;5022113;28;20041;-85
2022/07/18 10:41:52;;;;;;;4.35;2.10;;;;;;;;;;5013550;28;20145;-84
2022/07/18 10:44:20;;;;;;;4.15;1.90;;;;;;;;;;5013847;28;20042;-84
2022/07/18 10:47:05;;;;;;;4.68;2.45;;;;;;;;;;5013047;28;20095;-84
2022/07/18 10:49:45;;;;;;;4.13;1.90;;;;;;;;;;4999759;28;20397;-84
2022/07/18 10:52:23;;;;;;;4.00;1.90;;;;;;;;;;5020979;28;20095;-84
2022/07/18 10:55:09;;;;;;;4.10;2.15;;;;;;;;;;5019141;28;20066;-84
2022/07/18 10:57:49;;;;;;;6.80;2.40;;;;;;;;;;5022450;28;20041;-85
2022/07/18 11:00:26;;;;;;;3.30;1.90;;;;;;;;;;5013237;28;20050;-85
2022/07/18 11:03:00;;;;;;;4.47;2.10;;;;;;;;;;4996910;28;20429;-82
2022/07/18 11:05:26;;;;;;;3.53;1.92;;;;;;;;;;5016197;28;20033;-83
2022/07/18 11:07:57;;;;;;;4.03;2.00;;;;;;;;;;5018726;28;20047;-84
2022/07/18 11:10:44;;;;;;;4.15;1.65;;;;;;;;;;5014211;28;20087;-84
2022/07/18 11:13:25;;;;;;;3.30;1.50;;;;;;;;;;5015955;28;20045;-85
2022/07/18 11:16:21;;;;;;;3.63;1.80;;;;;;;;;;5017509;28;20153;-85
2022/07/18 11:18:47;;;;;;;3.95;1.73;;;;;;;;;;5018419;28;20053;-84
2022/07/18 11:21:33;;;;;;;4.32;1.90;;;;;;;;;;5024262;28;20048;-85
2022/07/18 11:24:08;;;;;;;3.05;1.60;;;;;;;;;;5007779;28;20045;-86
2022/07/18 11:26:47;;;;;;;4.03;1.90;;;;;;;;;;5003681;28;20061;-84
2022/07/18 11:29:15;;;;;;;4.47;1.73;;;;;;;;;;5007128;28;20461;-84
2022/07/18 11:31:58;;;;;;;4.15;1.77;;;;;;;;;;5018927;28;20366;-83
2022/07/18 11:34:24;;;;;;;4.35;2.05;;;;;;;;;;5003877;28;20030;-84
2022/07/18 11:36:50;;;;;;;4.00;1.70;;;;;;;;;;5001678;28;20052;-83
2022/07/18 11:39:30;;;;;;;3.97;1.80;;;;;;;;;;5000483;28;20037;-83
2022/07/18 11:41:55;;;;;;;5.55;2.00;;;;;;;;;;4982877;28;20390;-83
2022/07/18 11:44:27;;;;;;;3.83;1.80;;;;;;;;;;4990587;28;20044;-94
2022/07/18 11:47:10;;;;;;;3.53;1.90;;;;;;;;;;5022486;28;20029;-85
2022/07/18 11:49:37;;;;;;;3.50;1.80;;;;;;;;;;5000066;28;20449;-84
2022/07/18 11:52:03;;;;;;;3.50;1.75;;;;;;;;;;5000587;28;20787;-80
2022/07/18 11:54:29;;;;;;;3.22;1.67;;;;;;;;;;5000517;28;20147;-85
2022/07/18 11:56:55;;;;;;;4.05;1.60;;;;;;;;;;5012816;28;20125;-87
2022/07/18 11:59:21;;;;;;;3.60;1.80;;;;;;;;;;5013525;28;20638;-88
2022/07/18 12:01:54;;;;;;;4.00;2.00;;;;;;;;;;4998731;28;20029;-86
2022/07/18 12:04:21;;;;;;;3.47;1.75;;;;;;;;;;5016270;28;20772;-83
2022/07/18 12:07:19;;;;;;;3.58;1.65;;;;;;;;;;4986206;28;20033;-85
2022/07/18 12:09:49;;;;;;;4.07;1.90;;;;;;;;;;5001138;28;20111;-84
2022/07/18 12:12:16;;;;;;;2.97;1.55;;;;;;;;;;5011615;28;20390;-83
2022/07/18 12:14:41;;;;;;;;;;;;;;;;;;5012705;28;20799;-84
2022/07/18 12:17:07;;;;;;;2.83;1.50;;;;;;;;;;5012281;28;19932;-84
2022/07/18 12:19:38;;;;;;;4.47;1.75;;;;;;;;;;5009585;28;20041;-85
2022/07/18 12:22:03;;;;;;;3.78;1.65;;;;;;;;;;4999726;28;20030;-84
2022/07/18 12:24:56;;;;;;;4.03;1.60;;;;;;;;;;5017060;28;20430;-84
2022/07/18 12:27:29;;;;;;;4.15;1.65;;;;;;;;;;4997735;28;20269;-84
2022/07/18 12:30:22;;;;;;;3.38;1.50;;;;;;;;;;5016158;28;20120;-84
2022/07/18 12:32:51;;;;;;;3.72;1.60;;;;;;;;;;5006522;28;20068;-84
2022/07/18 12:35:23;;;;;;;3.90;1.48;;;;;;;;;;4999316;28;20042;-84
2022/07/18 12:38:08;;;;;;;4.10;1.75;;;;;;;;;;5008114;28;20053;-84
2022/07/18 12:40:53;;;;;;;4.55;1.75;;;;;;;;;;5015577;28;20038;-84
2022/07/18 12:43:26;;;;;;;3.78;1.40;;;;;;;;;;5002574;28;20042;-83
2022/07/18 12:45:55;;;;;;;4.10;1.70;;;;;;;;;;4998789;28;20041;-84
2022/07/18 12:48:20;;;;;;;3.20;1.45;;;;;;;;;;5005584;28;20030;-84
2022/07/18 12:50:46;;;;;;;4.50;1.98;;;;;;;;;;5005683;28;20341;-84
2022/07/18 12:53:12;;;;;;;4.80;1.52;;;;;;;;;;4999416;28;20038;-84
2022/07/18 12:55:39;;;;;;;5.20;1.70;;;;;;;;;;5011016;28;20041;-84
2022/07/18 12:58:05;;;;;;;;;;;;;;;;;;5001320;28;20069;-84
2022/07/18 13:00:31;;;;;;;3.97;1.58;;;;;;;;;;5006231;28;19963;-85
2022/07/18 13:02:57;;;;;;;4.25;1.50;;;;;;;;;;5001150;28;20049;-84
2022/07/18 13:05:28;;;;;;;2.85;1.30;;;;;;;;;;5013428;28;20489;-84
2022/07/18 13:07:53;;;;;;;3.40;1.60;;;;;;;;;;5006443;28;20037;-84
2022/07/18 13:10:19;;;;;;;2.75;1.20;;;;;;;;;;4999793;28;20068;-84
2022/07/18 13:12:44;;;;;;;3.05;1.13;;;;;;;;;;4990437;28;20386;-85
2022/07/18 13:15:10;;;;;;;3.88;1.50;;;;;;;;;;5001236;28;20425;-85
2022/07/18 13:17:35;;;;;;;3.33;1.45;;;;;;;;;;5006321;28;20056;-85
2022/07/18 13:20:01;;;;;;;3.80;1.73;;;;;;;;;;4995660;28;20096;-84
2022/07/18 13:22:26;;;;;;;5.25;1.80;;;;;;;;;;4999811;28;20041;-85
2022/07/18 13:24:51;;;;;;;3.22;1.60;;;;;;;;;;5012602;28;20038;-84
2022/07/18 13:27:19;;;;;;;4.07;1.63;;;;;;;;;;5004557;28;20101;-84
2022/07/18 13:29:44;;;;;;;;;;;;;;;;;;5014142;28;20029;-84
2022/07/18 13:32:09;;;;;;;3.55;1.45;;;;;;;;;;5012408;28;19987;-84
2022/07/18 13:34:35;;;;;;;3.28;1.55;;;;;;;;;;4998533;28;20037;-85
2022/07/18 13:37:00;;;;;;;4.10;1.80;;;;;;;;;;4987310;28;20038;-84
2022/07/18 13:39:25;;;;;;;3.55;1.60;;;;;;;;;;5002322;28;20048;-84
2022/07/18 13:41:51;;;;;;;3.22;1.42;;;;;;;;;;5000734;28;20037;-83
2022/07/18 13:44:16;;;;;;;3.95;2.00;;;;;;;;;;4999828;28;20493;-84
2022/07/18 13:46:42;;;;;;;3.25;1.42;;;;;;;;;;5004843;28;20042;-85
2022/07/18 13:49:08;;;;;;;13.20;2.40;;;;;;;;;;5012784;28;20049;-84
2022/07/18 13:51:34;;;;;;;4.18;2.03;;;;;;;;;;4999483;28;20073;-84
2022/07/18 13:54:00;;;;;;;3.50;1.63;;;;;;;;;;4998673;28;20072;-83
2022/07/18 13:56:25;;;;;;;3.90;1.75;;;;;;;;;;4997361;28;20060;-84
2022/07/18 13:58:51;;;;;;;3.75;1.60;;;;;;;;;;5010848;28;20037;-85
2022/07/18 14:01:16;;;;;;;3.60;1.50;;;;;;;;;;4988854;28;20092;-86
2022/07/18 14:03:41;;;;;;;4.22;2.08;;;;;;;;;;4983799;28;20045;-85
2022/07/18 14:06:07;;;;;;;3.40;1.50;;;;;;;;;;5005469;28;20439;-85
2022/07/18 14:08:32;;;;;;;3.92;1.73;;;;;;;;;;4999691;28;20065;-85
2022/07/18 14:10:58;;;;;;;4.68;1.90;;;;;;;;;;5005076;28;20083;-84
2022/07/18 14:13:23;;;;;;;3.22;1.60;;;;;;;;;;4999180;28;20038;-85
2022/07/18 14:15:48;;;;;;;3.72;1.77;;;;;;;;;;4997938;28;20041;-85
2022/07/18 14:18:14;;;;;;;3.97;1.58;;;;;;;;;;5006344;28;20037;-86
2022/07/18 14:20:39;;;;;;;3.55;1.75;;;;;;;;;;4999181;28;21496;-85
2022/07/18 14:23:06;;;;;;;4.57;1.75;;;;;;;;;;4997098;28;20030;-86
2022/07/18 14:25:32;;;;;;;4.05;2.00;;;;;;;;;;5001313;28;20037;-85
2022/07/18 14:27:57;;;;;;;4.07;1.90;;;;;;;;;;5002721;28;20041;-85
2022/07/18 14:30:23;;;;;;;3.65;1.90;;;;;;;;;;5001889;28;20038;-85
2022/07/18 14:32:48;;;;;;;3.13;1.63;;;;;;;;;;5017719;28;20033;-85
2022/07/18 14:35:13;;;;;;;3.72;1.80;;;;;;;;;;5001726;28;20185;-85
2022/07/18 14:37:39;;;;;;;4.43;2.25;;;;;;;;;;5016686;28;20119;-85
2022/07/18 14:40:05;;;;;;;3.50;1.75;;;;;;;;;;4999750;28;20040;-85
2022/07/18 14:42:30;;;;;;;4.00;2.10;;;;;;;;;;5000162;28;20038;-85
2022/07/18 14:44:56;;;;;;;5.43;2.00;;;;;;;;;;5002387;28;20050;-85
2022/07/18 14:47:22;;;;;;;4.10;2.00;;;;;;;;;;5013882;28;20034;-85
2022/07/18 14:49:47;;;;;;;3.65;1.92;;;;;;;;;;5009962;28;20381;-85
2022/07/18 14:52:12;;;;;;;4.47;1.85;;;;;;;;;;4999081;28;20702;-85